createdAt,value
2018-03-28T00:02:08.803Z,33.63
2018-03-28T00:04:36.324Z,30.50
2018-03-28T00:07:03.891Z,32.90
2018-03-28T00:09:31.409Z,32.42
2018-03-28T00:11:58.946Z,28.87
2018-03-28T00:14:26.481Z,35.53
2018-03-28T00:16:53.998Z,36.20
2018-03-28T00:19:21.540Z,32.55
2018-03-28T00:21:49.122Z,32.30
2018-03-28T00:24:16.651Z,38.28
2018-03-28T00:26:44.190Z,41.35
2018-03-28T00:29:11.711Z,42.72
2018-03-28T00:31:39.246Z,42.70
2018-03-28T00:34:06.770Z,43.40
2018-03-28T00:36:34.293Z,41.90
2018-03-28T00:39:01.838Z,44.92
2018-03-28T00:41:29.356Z,41.33
2018-03-28T00:43:56.876Z,42.33
2018-03-28T00:46:25.279Z,41.47
2018-03-28T00:48:52.796Z,37.42
2018-03-28T00:51:32.157Z,36.88
2018-03-28T00:53:59.694Z,35.67
2018-03-28T00:56:27.219Z,40.92
2018-03-28T00:58:54.743Z,37.38
2018-03-28T01:01:22.259Z,44.33
2018-03-28T01:03:49.778Z,42.85
2018-03-28T01:06:20.130Z,41.97
2018-03-28T01:08:47.642Z,36.83
2018-03-28T01:11:15.157Z,37.25
2018-03-28T01:13:42.679Z,32.40
2018-03-28T01:16:10.279Z,25.65
2018-03-28T01:18:37.820Z,26.37
2018-03-28T01:21:05.338Z,24.48
2018-03-28T01:23:32.875Z,24.30
2018-03-28T01:26:00.451Z,24.60
2018-03-28T01:28:27.971Z,23.83
2018-03-28T01:30:55.514Z,24.25
2018-03-28T01:33:23.023Z,24.55
2018-03-28T01:35:50.535Z,24.02
2018-03-28T01:38:18.051Z,23.98
2018-03-28T01:40:45.565Z,24.70
2018-03-28T01:43:13.117Z,25.70
2018-03-28T01:45:40.632Z,25.17
2018-03-28T01:48:08.153Z,26.20
2018-03-28T01:50:35.675Z,26.37
2018-03-28T01:53:03.198Z,25.50
2018-03-28T01:55:30.747Z,24.08
2018-03-28T01:57:58.267Z,24.75
2018-03-28T02:00:25.814Z,24.10
2018-03-28T02:02:53.335Z,23.05
2018-03-28T02:05:20.886Z,23.90
2018-03-28T02:07:48.399Z,23.08
2018-03-28T02:10:15.911Z,23.10
2018-03-28T02:12:43.438Z,23.75
2018-03-28T02:15:10.958Z,24.33
2018-03-28T02:17:38.480Z,23.73
2018-03-28T02:20:06.011Z,23.75
2018-03-28T02:22:33.551Z,23.95
2018-03-28T02:25:01.092Z,24.05
2018-03-28T02:27:28.611Z,23.00
2018-03-28T02:29:56.138Z,23.35
2018-03-28T02:32:23.657Z,24.40
2018-03-28T02:34:51.178Z,26.60
2018-03-28T02:37:18.718Z,27.67
2018-03-28T02:39:46.311Z,28.52
2018-03-28T02:42:13.827Z,26.60
2018-03-28T02:44:41.349Z,24.90
2018-03-28T02:47:08.928Z,23.98
2018-03-28T02:49:36.472Z,21.75
2018-03-28T02:52:03.999Z,22.48
2018-03-28T02:54:31.523Z,21.95
2018-03-28T02:56:59.052Z,22.55
2018-03-28T02:59:26.570Z,24.75
2018-03-28T03:01:54.120Z,24.83
2018-03-28T03:04:21.639Z,24.05
2018-03-28T03:06:49.158Z,23.05
2018-03-28T03:09:16.678Z,22.90
2018-03-28T03:11:44.186Z,22.85
2018-03-28T03:14:11.725Z,21.35
2018-03-28T03:16:39.248Z,31.62
2018-03-28T03:19:06.769Z,34.42
2018-03-28T03:21:34.294Z,32.15
2018-03-28T03:24:01.816Z,31.48
2018-03-28T03:26:29.367Z,27.48
2018-03-28T03:28:56.882Z,24.73
2018-03-28T03:31:24.416Z,23.52
2018-03-28T03:33:51.940Z,24.33
2018-03-28T03:36:19.467Z,22.87
2018-03-28T03:38:46.991Z,22.60
2018-03-28T03:41:14.506Z,22.23
2018-03-28T03:43:42.067Z,21.62
2018-03-28T03:46:09.691Z,22.23
2018-03-28T03:48:37.206Z,22.00
2018-03-28T03:51:04.720Z,18.87
2018-03-28T03:53:32.239Z,20.35
2018-03-28T03:55:59.783Z,21.08
2018-03-28T03:58:27.318Z,22.58
2018-03-28T04:00:54.888Z,21.52
2018-03-28T04:03:22.398Z,20.95
2018-03-28T04:05:49.925Z,21.25
2018-03-28T04:08:17.781Z,20.75
2018-03-28T04:10:45.298Z,21.25
2018-03-28T04:13:12.823Z,21.05
2018-03-28T04:15:40.339Z,20.48
2018-03-28T04:18:07.858Z,21.35
2018-03-28T04:20:35.390Z,22.77
2018-03-28T04:23:02.908Z,24.45
2018-03-28T04:25:30.437Z,23.25
2018-03-28T04:27:57.987Z,24.12
2018-03-28T04:30:25.519Z,21.67
2018-03-28T04:32:53.047Z,21.73
2018-03-28T04:35:20.599Z,22.80
2018-03-28T04:37:48.127Z,22.92
2018-03-28T04:40:15.648Z,21.98
2018-03-28T04:42:43.180Z,22.55
2018-03-28T04:45:10.730Z,22.10
2018-03-28T04:47:38.263Z,22.13
2018-03-28T04:50:05.782Z,22.50
2018-03-28T04:52:33.299Z,23.70
2018-03-28T04:55:00.823Z,24.45
2018-03-28T04:57:28.349Z,24.92
2018-03-28T04:59:55.900Z,24.30
2018-03-28T05:02:23.430Z,25.70
2018-03-28T05:04:50.947Z,24.63
2018-03-28T05:07:18.487Z,24.42
2018-03-28T05:09:45.998Z,26.87
2018-03-28T05:12:13.536Z,27.48
2018-03-28T05:14:41.082Z,28.83
2018-03-28T05:17:08.610Z,27.55
2018-03-28T05:19:36.135Z,27.23
2018-03-28T05:22:03.663Z,25.80
2018-03-28T05:24:31.209Z,25.70
2018-03-28T05:26:58.759Z,27.05
2018-03-28T05:29:26.312Z,26.33
2018-03-28T05:31:53.963Z,27.07
2018-03-28T05:34:21.489Z,26.87
2018-03-28T05:36:49.035Z,24.30
2018-03-28T05:39:16.555Z,25.67
2018-03-28T05:41:44.082Z,26.30
2018-03-28T05:44:11.632Z,27.07
2018-03-28T05:46:39.151Z,26.57
2018-03-28T05:49:06.668Z,25.67
2018-03-28T05:51:34.194Z,27.10
2018-03-28T05:54:01.716Z,28.70
2018-03-28T05:56:29.298Z,26.93
2018-03-28T05:58:56.830Z,29.60
2018-03-28T06:01:24.365Z,29.07
2018-03-28T06:03:51.922Z,26.67
2018-03-28T06:06:19.447Z,24.23
2018-03-28T06:08:46.991Z,25.07
2018-03-28T06:11:14.511Z,24.30
2018-03-28T06:13:42.068Z,24.90
2018-03-28T06:16:09.648Z,23.50
2018-03-28T06:18:37.170Z,24.40
2018-03-28T06:21:04.705Z,22.17
2018-03-28T06:23:32.232Z,20.77
2018-03-28T06:25:59.772Z,19.40
2018-03-28T06:28:27.286Z,19.23
2018-03-28T06:30:55.109Z,20.63
2018-03-28T06:33:22.640Z,20.27
2018-03-28T06:35:50.205Z,18.73
2018-03-28T06:38:17.728Z,18.60
2018-03-28T06:40:45.248Z,19.27
2018-03-28T06:43:12.801Z,19.70
2018-03-28T06:45:40.324Z,19.93
2018-03-28T06:48:07.843Z,19.30
2018-03-28T06:50:35.366Z,19.83
2018-03-28T06:53:02.908Z,20.50
2018-03-28T06:55:30.462Z,20.07
2018-03-28T06:57:57.978Z,21.77
2018-03-28T07:00:25.544Z,20.80
2018-03-28T07:02:53.063Z,21.63
2018-03-28T07:05:20.618Z,20.03
2018-03-28T07:07:48.144Z,19.97
2018-03-28T07:10:15.662Z,20.30
2018-03-28T07:12:43.185Z,19.53
2018-03-28T07:15:10.712Z,20.77
2018-03-28T07:17:38.258Z,20.60
2018-03-28T07:20:05.775Z,19.37
2018-03-28T07:22:33.298Z,20.23
2018-03-28T07:25:00.827Z,19.27
2018-03-28T07:27:28.368Z,20.53
2018-03-28T07:29:55.920Z,19.53
2018-03-28T07:32:23.434Z,17.90
2018-03-28T07:34:50.956Z,17.97
2018-03-28T07:37:18.475Z,17.57
2018-03-28T07:39:45.990Z,18.70
2018-03-28T07:42:13.543Z,18.23
2018-03-28T07:44:41.067Z,17.70
2018-03-28T07:47:08.590Z,19.73
2018-03-28T07:49:36.119Z,17.30
2018-03-28T07:52:03.639Z,16.93
2018-03-28T07:54:31.211Z,17.60
2018-03-28T07:56:58.731Z,17.00
2018-03-28T07:59:26.247Z,16.47
2018-03-28T08:01:53.799Z,18.27
2018-03-28T08:04:21.326Z,18.70
2018-03-28T08:06:48.856Z,19.93
2018-03-28T08:09:16.383Z,18.53
2018-03-28T08:11:43.928Z,17.67
2018-03-28T08:14:11.447Z,17.47
2018-03-28T08:16:39.012Z,18.37
2018-03-28T08:19:06.554Z,16.00
2018-03-28T08:21:34.117Z,17.20
2018-03-28T08:24:01.652Z,18.50
2018-03-28T08:26:29.177Z,18.97
2018-03-28T08:28:56.702Z,16.90
2018-03-28T08:31:24.222Z,18.17
2018-03-28T08:33:51.746Z,15.60
2018-03-28T08:39:39.894Z,17.20
2018-03-28T08:42:19.860Z,16.77
2018-03-28T08:44:47.383Z,16.73
2018-03-28T08:47:14.904Z,17.40
2018-03-28T08:49:42.428Z,16.93
2018-03-28T08:52:09.947Z,18.00
2018-03-28T08:54:37.503Z,15.73
2018-03-28T08:57:05.029Z,17.20
2018-03-28T08:59:32.551Z,15.33
2018-03-28T09:02:00.135Z,16.20
2018-03-28T09:04:27.666Z,15.90
2018-03-28T09:06:55.231Z,16.07
2018-03-28T09:09:22.755Z,15.97
2018-03-28T09:11:50.275Z,15.73
2018-03-28T09:14:17.795Z,16.03
2018-03-28T09:16:45.325Z,16.37
2018-03-28T09:19:12.932Z,16.40
2018-03-28T09:21:40.428Z,16.90
2018-03-28T09:24:07.948Z,16.37
2018-03-28T09:26:35.518Z,17.40
2018-03-28T09:29:03.042Z,17.23
2018-03-28T09:31:30.639Z,16.60
2018-03-28T09:33:58.165Z,16.83
2018-03-28T09:36:25.705Z,17.53
2018-03-28T09:38:53.228Z,17.57
2018-03-28T09:41:20.747Z,16.13
2018-03-28T09:43:48.296Z,15.87
2018-03-28T09:46:15.820Z,16.13
2018-03-28T09:48:43.338Z,16.73
2018-03-28T09:51:10.882Z,15.60
2018-03-28T09:53:38.403Z,13.93
2018-03-28T09:56:06.334Z,13.53
2018-03-28T09:58:33.818Z,13.73
2018-03-28T10:01:06.884Z,12.93
2018-03-28T10:03:34.442Z,12.57
2018-03-28T10:06:01.955Z,14.83
2018-03-28T10:08:29.477Z,14.47
2018-03-28T10:10:57.009Z,14.67
2018-03-28T10:13:24.561Z,14.17
2018-03-28T10:15:52.075Z,13.57
2018-03-28T10:18:19.599Z,14.00
2018-03-28T10:20:47.116Z,12.33
2018-03-28T10:23:14.629Z,13.37
2018-03-28T10:25:42.180Z,15.83
2018-03-28T10:28:09.699Z,14.90
2018-03-28T10:30:37.247Z,13.93
2018-03-28T10:33:04.762Z,13.83
2018-03-28T10:35:32.289Z,13.33
2018-03-28T10:37:59.816Z,13.50
2018-03-28T10:40:27.365Z,12.87
2018-03-28T10:42:54.925Z,13.80
2018-03-28T10:45:22.456Z,13.43
2018-03-28T10:47:49.978Z,14.60
2018-03-28T10:50:17.500Z,14.63
2018-03-28T10:52:45.027Z,15.17
2018-03-28T10:55:12.579Z,14.30
2018-03-28T10:57:40.107Z,16.23
2018-03-28T11:00:08.012Z,15.03
2018-03-28T11:02:35.539Z,15.03
2018-03-28T11:05:03.058Z,15.20
2018-03-28T11:07:30.592Z,14.90
2018-03-28T11:09:58.124Z,15.53
2018-03-28T11:12:25.692Z,15.10
2018-03-28T11:14:53.217Z,16.20
2018-03-28T11:17:20.739Z,17.83
2018-03-28T11:19:48.264Z,15.17
2018-03-28T11:22:15.800Z,15.47
2018-03-28T11:24:43.351Z,17.17
2018-03-28T11:27:10.880Z,15.10
2018-03-28T11:29:38.406Z,16.00
2018-03-28T11:32:05.949Z,15.63
2018-03-28T11:34:33.486Z,16.13
2018-03-28T11:37:01.003Z,16.83
2018-03-28T11:39:28.527Z,16.57
2018-03-28T11:41:56.044Z,16.00
2018-03-28T11:44:23.563Z,16.47
2018-03-28T11:46:51.079Z,16.80
2018-03-28T11:49:18.616Z,14.80
2018-03-28T11:51:46.167Z,15.40
2018-03-28T11:54:13.691Z,16.10
2018-03-28T11:56:41.234Z,15.20
2018-03-28T11:59:08.762Z,14.77
2018-03-28T12:01:36.307Z,14.33
2018-03-28T12:04:03.855Z,15.07
2018-03-28T12:06:31.382Z,14.87
2018-03-28T12:08:58.907Z,14.57
2018-03-28T12:11:26.427Z,15.23
2018-03-28T12:13:53.972Z,14.07
2018-03-28T12:16:21.786Z,14.40
2018-03-28T12:18:49.307Z,14.60
2018-03-28T12:21:16.839Z,13.80
2018-03-28T12:23:44.361Z,11.83
2018-03-28T12:26:11.970Z,14.47
2018-03-28T12:28:39.505Z,12.00
2018-03-28T12:31:07.047Z,12.87
2018-03-28T12:33:34.566Z,12.77
2018-03-28T12:36:02.091Z,11.43
2018-03-28T12:38:29.617Z,12.63
2018-03-28T12:40:57.140Z,12.80
2018-03-28T12:43:24.682Z,12.90
2018-03-28T12:45:52.259Z,12.97
2018-03-28T12:48:19.748Z,12.83
2018-03-28T12:50:47.271Z,12.90
2018-03-28T12:53:14.834Z,12.77
2018-03-28T12:55:42.357Z,12.10
2018-03-28T12:58:09.892Z,12.23
2018-03-28T13:00:37.438Z,11.77
2018-03-28T13:03:04.956Z,11.17
2018-03-28T13:05:32.476Z,11.80
2018-03-28T13:08:00.027Z,12.33
2018-03-28T13:10:27.551Z,12.67
2018-03-28T13:12:55.091Z,12.47
2018-03-28T13:15:22.616Z,11.60
2018-03-28T13:17:50.131Z,11.50
2018-03-28T13:20:17.656Z,11.00
2018-03-28T13:22:45.192Z,10.70
2018-03-28T13:25:12.754Z,10.80
2018-03-28T13:27:40.271Z,11.70
2018-03-28T13:30:07.918Z,11.60
2018-03-28T13:32:35.440Z,12.27
2018-03-28T13:35:02.963Z,10.63
2018-03-28T13:37:30.482Z,11.47
2018-03-28T13:39:57.999Z,11.67
2018-03-28T13:42:25.546Z,11.93
2018-03-28T13:44:53.067Z,12.47
2018-03-28T13:47:20.588Z,10.60
2018-03-28T13:49:48.116Z,12.17
2018-03-28T13:52:16.422Z,11.47
2018-03-28T13:54:43.976Z,11.57
2018-03-28T13:57:11.494Z,11.63
2018-03-28T13:59:39.038Z,13.00
2018-03-28T14:02:06.558Z,10.10
2018-03-28T14:04:34.083Z,11.47
2018-03-28T14:07:01.643Z,11.37
2018-03-28T14:09:29.186Z,10.97
2018-03-28T14:11:56.708Z,11.70
2018-03-28T14:14:24.222Z,10.13
2018-03-28T14:16:51.746Z,10.57
2018-03-28T14:19:19.304Z,9.87
2018-03-28T14:21:46.906Z,11.27
2018-03-28T14:24:14.390Z,11.37
2018-03-28T14:26:41.911Z,10.60
2018-03-28T14:29:09.444Z,10.53
2018-03-28T14:31:36.998Z,9.50
2018-03-28T14:34:04.576Z,10.73
2018-03-28T14:36:32.095Z,10.30
2018-03-28T14:38:59.615Z,8.93
2018-03-28T14:41:27.134Z,9.63
2018-03-28T14:43:54.677Z,9.57
2018-03-28T14:46:22.196Z,9.63
2018-03-28T14:48:50.042Z,10.47
2018-03-28T14:51:17.559Z,9.83
2018-03-28T14:53:45.107Z,9.67
2018-03-28T14:56:12.654Z,9.23
2018-03-28T14:58:40.238Z,9.90
2018-03-28T15:01:07.779Z,9.97
2018-03-28T15:03:35.314Z,11.23
2018-03-28T15:06:02.839Z,10.47
2018-03-28T15:08:30.356Z,9.97
2018-03-28T15:10:57.883Z,10.43
2018-03-28T15:13:25.424Z,10.70
2018-03-28T15:15:53.658Z,10.13
2018-03-28T15:18:25.125Z,10.73
2018-03-28T15:20:52.724Z,10.40
2018-03-28T15:23:20.242Z,10.53
2018-03-28T15:25:47.763Z,10.23
2018-03-28T15:28:15.282Z,10.40
2018-03-28T15:30:42.834Z,13.60
2018-03-28T15:33:10.367Z,12.17
2018-03-28T15:35:37.906Z,11.67
2018-03-28T15:38:05.475Z,10.40
2018-03-28T15:40:33.003Z,11.23
2018-03-28T15:43:00.568Z,11.63
2018-03-28T15:45:28.120Z,11.17
2018-03-28T15:47:55.636Z,11.53
2018-03-28T15:50:23.169Z,10.37
2018-03-28T15:52:50.685Z,9.80
2018-03-28T15:55:18.219Z,10.27
2018-03-28T15:57:45.782Z,9.80
2018-03-28T16:00:13.404Z,10.33
2018-03-28T16:02:40.962Z,10.60
2018-03-28T16:05:08.491Z,9.50
2018-03-28T16:07:36.038Z,9.40
2018-03-28T16:10:03.562Z,9.27
2018-03-28T16:12:31.083Z,9.20
2018-03-28T16:14:58.605Z,9.80
2018-03-28T16:17:26.143Z,10.00
2018-03-28T16:19:53.673Z,11.50
2018-03-28T16:22:21.198Z,9.60
2018-03-28T16:24:48.743Z,10.43
2018-03-28T16:27:16.280Z,11.17
2018-03-28T16:29:43.815Z,11.90
2018-03-28T16:32:11.392Z,13.20
2018-03-28T16:34:39.318Z,12.47
2018-03-28T16:37:06.880Z,12.53
2018-03-28T16:39:34.413Z,17.37
2018-03-28T16:42:02.267Z,14.20
2018-03-28T16:44:29.790Z,15.33
2018-03-28T16:46:57.355Z,12.93
2018-03-28T16:49:24.887Z,11.57
2018-03-28T16:51:52.467Z,13.00
2018-03-28T16:54:19.983Z,11.87
2018-03-28T16:56:47.516Z,11.97
2018-03-28T16:59:15.046Z,12.43
2018-03-28T17:01:42.594Z,13.20
2018-03-28T17:04:10.112Z,13.60
2018-03-28T17:06:37.627Z,11.87
2018-03-28T17:09:06.063Z,13.10
2018-03-28T17:11:33.619Z,13.90
2018-03-28T17:14:01.222Z,17.33
2018-03-28T17:16:28.714Z,20.80
2018-03-28T17:18:56.260Z,21.17
2018-03-28T17:21:23.882Z,23.00
2018-03-28T17:23:51.412Z,19.27
2018-03-28T17:26:18.928Z,17.63
2018-03-28T17:28:46.491Z,18.80
2018-03-28T17:31:14.044Z,19.07
2018-03-28T17:33:41.565Z,20.50
2018-03-28T17:36:09.090Z,18.47
2018-03-28T17:38:36.639Z,20.03
2018-03-28T17:41:04.162Z,17.33
2018-03-28T17:43:31.695Z,20.07
2018-03-28T17:45:59.226Z,19.13
2018-03-28T17:48:26.747Z,23.50
2018-03-28T17:50:54.263Z,24.20
2018-03-28T17:53:21.816Z,22.97
2018-03-28T17:55:49.370Z,27.33
2018-03-28T17:58:16.909Z,26.13
2018-03-28T18:00:44.450Z,38.53
2018-03-28T18:03:11.968Z,30.20
2018-03-28T18:05:39.486Z,25.43
2018-03-28T18:08:07.039Z,24.30
2018-03-28T18:10:34.559Z,29.90
2018-03-28T18:13:02.077Z,26.70
2018-03-28T18:15:29.632Z,25.47
2018-03-28T18:17:57.151Z,24.70
2018-03-28T18:20:24.671Z,26.23
2018-03-28T18:22:52.219Z,29.17
2018-03-28T18:25:19.748Z,115.73
2018-03-28T18:27:47.263Z,39.70
2018-03-28T18:30:14.827Z,30.37
2018-03-28T18:32:42.354Z,30.33
2018-03-28T18:35:09.926Z,31.33
2018-03-28T18:37:37.427Z,41.20
2018-03-28T18:40:04.948Z,48.03
2018-03-28T18:42:33.275Z,42.57
2018-03-28T18:45:00.797Z,42.47
2018-03-28T18:47:28.326Z,44.77
2018-03-28T18:49:55.846Z,42.63
2018-03-28T18:52:23.369Z,42.20
2018-03-28T18:54:50.903Z,36.97
2018-03-28T18:57:18.495Z,34.30
2018-03-28T18:59:46.039Z,33.10
2018-03-28T19:02:13.851Z,38.40
2018-03-28T19:04:41.415Z,42.63
2018-03-28T19:07:08.978Z,43.83
2018-03-28T19:09:36.599Z,43.13
2018-03-28T19:12:04.189Z,37.43
2018-03-28T19:14:31.765Z,41.43
2018-03-28T19:16:59.331Z,37.93
2018-03-28T19:19:26.927Z,38.23
2018-03-28T19:21:54.463Z,36.90
2018-03-28T19:24:21.998Z,34.67
2018-03-28T19:26:49.534Z,32.58
2018-03-28T19:29:17.059Z,31.93
2018-03-28T19:31:44.673Z,37.30
2018-03-28T19:34:12.211Z,37.53
2018-03-28T19:36:39.775Z,35.28
2018-03-28T19:39:07.355Z,34.17
2018-03-28T19:41:34.915Z,34.13
2018-03-28T19:44:02.505Z,33.30
2018-03-28T19:46:30.057Z,33.60
2018-03-28T19:48:57.626Z,33.55
2018-03-28T19:51:25.161Z,35.60
2018-03-28T19:53:53.594Z,36.47
2018-03-28T19:56:21.167Z,38.72
2018-03-28T19:58:48.722Z,38.80
2018-03-28T20:01:16.282Z,39.90
2018-03-28T20:03:43.839Z,39.15
2018-03-28T20:06:11.389Z,41.17
2018-03-28T20:08:38.975Z,39.20
2018-03-28T20:11:06.511Z,40.50
2018-03-28T20:13:34.061Z,38.17
2018-03-28T20:16:01.599Z,37.72
2018-03-28T20:18:29.152Z,34.03
2018-03-28T20:20:56.711Z,31.40
2018-03-28T20:23:24.235Z,47.53
2018-03-28T20:25:51.768Z,33.13
2018-03-28T20:28:19.327Z,30.25
2018-03-28T20:30:47.123Z,34.63
2018-03-28T20:33:14.649Z,33.17
2018-03-28T20:35:42.195Z,31.95
2018-03-28T20:38:09.945Z,30.17
2018-03-28T20:40:37.470Z,36.80
2018-03-28T20:43:05.070Z,39.75
2018-03-28T20:45:32.587Z,37.35
2018-03-28T20:48:00.135Z,39.22
2018-03-28T20:50:27.660Z,48.63
2018-03-28T20:52:55.180Z,49.72
2018-03-28T20:55:22.698Z,52.25
2018-03-28T20:57:50.243Z,50.47
2018-03-28T21:00:17.829Z,52.28
2018-03-28T21:02:45.355Z,57.05
2018-03-28T21:05:12.890Z,58.28
2018-03-28T21:07:44.289Z,59.65
2018-03-28T21:10:11.843Z,60.33
2018-03-28T21:12:39.403Z,61.35
2018-03-28T21:15:06.942Z,57.78
2018-03-28T21:17:34.483Z,56.83
2018-03-28T21:20:02.784Z,57.00
2018-03-28T21:22:30.307Z,57.42
2018-03-28T21:24:57.850Z,55.08
2018-03-28T21:27:25.711Z,59.03
2018-03-28T21:29:53.243Z,59.58
2018-03-28T21:32:20.777Z,52.55
2018-03-28T21:34:48.292Z,49.45
2018-03-28T21:37:15.847Z,49.78
2018-03-28T21:39:43.394Z,52.00
2018-03-28T21:42:10.929Z,46.35
2018-03-28T21:44:38.462Z,46.10
2018-03-28T21:47:06.002Z,48.28
2018-03-28T21:49:33.812Z,48.90
2018-03-28T21:52:01.330Z,43.22
2018-03-28T21:54:28.838Z,46.45
2018-03-28T21:56:56.356Z,45.70
2018-03-28T21:59:23.870Z,52.33
2018-03-28T22:01:51.451Z,56.70
2018-03-28T22:04:18.971Z,61.90
2018-03-28T22:06:46.876Z,64.82
2018-03-28T22:09:14.398Z,54.22
2018-03-28T22:11:41.914Z,72.97
2018-03-28T22:14:09.459Z,60.67
2018-03-28T22:16:36.976Z,57.60
2018-03-28T22:19:04.759Z,52.35
2018-03-28T22:21:32.281Z,53.50
2018-03-28T22:23:59.799Z,50.72
2018-03-28T22:26:27.352Z,52.17
2018-03-28T22:28:55.677Z,80.18
2018-03-28T22:31:23.224Z,72.82
2018-03-28T22:33:50.746Z,72.20
2018-03-28T22:36:18.268Z,80.30
2018-03-28T22:38:45.791Z,76.03
2018-03-28T22:41:13.326Z,71.80
2018-03-28T22:43:40.883Z,72.05
2018-03-28T22:46:08.414Z,74.55
2018-03-28T22:48:35.995Z,76.28
2018-03-28T22:51:03.518Z,74.30
2018-03-28T22:53:31.034Z,82.93
2018-03-28T22:55:58.848Z,88.80
2018-03-28T22:58:26.386Z,81.53
2018-03-28T23:00:55.207Z,68.68
2018-03-28T23:03:22.966Z,76.00
2018-03-28T23:05:50.495Z,101.15
2018-03-28T23:08:18.066Z,137.30
2018-03-28T23:10:46.408Z,133.05
2018-03-28T23:13:14.035Z,121.43
2018-03-28T23:15:41.574Z,126.00
2018-03-28T23:18:09.104Z,128.02
2018-03-28T23:20:37.354Z,110.32
2018-03-28T23:23:04.906Z,114.03
2018-03-28T23:25:32.459Z,96.30
2018-03-28T23:27:59.999Z,87.65
2018-03-28T23:30:27.559Z,71.12
2018-03-28T23:32:55.080Z,68.12
2018-03-28T23:35:22.650Z,63.92
2018-03-28T23:37:50.184Z,44.60
2018-03-28T23:40:17.707Z,91.35
2018-03-28T23:42:45.475Z,95.68
2018-03-28T23:45:12.995Z,88.37
2018-03-28T23:47:40.514Z,84.97
2018-03-28T23:50:08.064Z,94.90
2018-03-28T23:52:37.630Z,81.43
2018-03-28T23:55:05.163Z,80.07
2018-03-28T23:57:32.680Z,67.50
